Time,TemperatureF,DewpointF,PressureIn,WindDirection,WindDirectionDegrees,WindSpeedMPH,WindSpeedGustMPH,Humidity,HourlyPrecipIn,Conditions,Clouds,dailyrainin,SoftwareType,DateUTC
2013-04-25 00:01:00,47.3,43.9,30.09,ESE,106,1.0,1.0,88,0.00,,---,0.00,VWS V14.01,2013-04-25 04:01:00,
2013-04-25 00:06:00,47.1,43.4,30.08,East,99,4.0,4.0,87,0.00,,---,0.00,VWS V14.01,2013-04-25 04:06:00,
2013-04-25 00:11:00,46.8,43.1,30.09,SSE,149,0.0,1.0,87,0.00,,---,0.00,VWS V14.01,2013-04-25 04:11:00,
2013-04-25 00:16:00,46.8,43.4,30.09,NE,41,1.0,1.0,88,0.00,,---,0.00,VWS V14.01,2013-04-25 04:16:00,
2013-04-25 00:21:00,46.7,43.3,30.09,ENE,72,2.0,2.0,88,0.00,,---,0.00,VWS V14.01,2013-04-25 04:21:00,
2013-04-25 00:26:00,46.7,43.0,30.09,WSW,242,1.0,2.0,87,0.00,,---,0.00,VWS V14.01,2013-04-25 04:26:00,
2013-04-25 00:31:00,46.5,42.8,30.09,SSE,151,3.0,3.0,87,0.00,,---,0.00,VWS V14.01,2013-04-25 04:31:00,
2013-04-25 00:36:00,46.3,42.7,30.09,WNW,283,5.0,5.0,87,0.00,,---,0.00,VWS V14.01,2013-04-25 04:36:00,
2013-04-25 00:41:00,46.0,42.7,30.10,WSW,250,1.0,5.0,88,0.00,,---,0.00,VWS V14.01,2013-04-25 04:41:00,
2013-04-25 00:46:00,45.6,42.0,30.09,SSE,160,2.0,8.0,87,0.00,,---,0.00,VWS V14.01,2013-04-25 04:46:00,
2013-04-25 00:51:00,45.3,42.0,30.10,East,89,0.0,1.0,88,0.00,,---,0.00,VWS V14.01,2013-04-25 04:51:00,
2013-04-25 00:56:00,45.1,41.8,30.10,SSE,156,3.0,3.0,88,0.00,,---,0.00,VWS V14.01,2013-04-25 04:56:00,
2013-04-25 01:01:00,45.1,41.8,30.10,SSE,167,1.0,2.0,88,0.00,,---,0.00,VWS V14.01,2013-04-25 05:01:00,
2013-04-25 01:06:00,45.0,41.4,30.09,West,267,0.0,1.0,87,0.00,,---,0.00,VWS V14.01,2013-04-25 05:06:00,
2013-04-25 01:11:00,45.0,41.7,30.10,NE,51,1.0,2.0,88,0.00,,---,0.00,VWS V14.01,2013-04-25 05:11:00,
2013-04-25 01:16:00,45.0,41.7,30.10,East,93,0.0,0.0,88,0.00,,---,0.00,VWS V14.01,2013-04-25 05:16:00,
2013-04-25 01:21:00,45.0,41.7,30.10,WSW,251,0.0,1.0,88,0.00,,---,0.00,VWS V14.01,2013-04-25 05:21:00,
2013-04-25 01:26:00,44.9,41.3,30.10,NNW,337,0.0,0.0,87,0.00,,---,0.00,VWS V14.01,2013-04-25 05:26:00,
2013-04-25 01:31:00,44.9,41.6,30.10,West,274,1.0,2.0,88,0.00,,---,0.00,VWS V14.01,2013-04-25 05:31:00,
2013-04-25 01:36:00,44.9,41.6,30.10,SW,225,0.0,0.0,88,0.00,,---,0.00,VWS V14.01,2013-04-25 05:36:00,
2013-04-25 01:41:00,44.9,41.6,30.10,NE,36,0.0,1.0,88,0.00,,---,0.00,VWS V14.01,2013-04-25 05:41:00,
2013-04-25 01:46:00,44.9,41.9,30.11,ENE,75,0.0,1.0,89,0.00,,---,0.00,VWS V14.01,2013-04-25 05:46:00,
2013-04-25 01:51:00,44.7,41.4,30.11,NNE,20,1.0,2.0,88,0.00,,---,0.00,VWS V14.01,2013-04-25 05:51:00,
2013-04-25 01:56:00,44.6,41.3,30.10,SSE,160,2.0,3.0,88,0.00,,---,0.00,VWS V14.01,2013-04-25 05:56:00,
2013-04-25 02:01:00,44.5,41.5,30.11,ESE,111,0.0,1.0,89,0.00,,---,0.00,VWS V14.01,2013-04-25 06:01:00,
2013-04-25 02:06:00,44.4,41.1,30.11,West,276,0.0,1.0,88,0.00,,---,0.00,VWS V14.01,2013-04-25 06:06:00,
2013-04-25 02:11:00,44.4,41.1,30.10,SW,214,3.0,3.0,88,0.00,,---,0.00,VWS V14.01,2013-04-25 06:11:00,
2013-04-25 02:16:00,44.4,41.4,30.10,SSE,148,0.0,0.0,89,0.00,,---,0.00,VWS V14.01,2013-04-25 06:16:00,
2013-04-25 02:21:00,44.4,41.7,30.11,WSW,256,1.0,1.0,90,0.00,,---,0.00,VWS V14.01,2013-04-25 06:21:00,
2013-04-25 02:26:00,44.4,41.1,30.10,WSW,249,0.0,0.0,88,0.00,,---,0.00,VWS V14.01,2013-04-25 06:26:00,
2013-04-25 02:31:00,44.3,41.0,30.10,SE,131,0.0,1.0,88,0.00,,---,0.00,VWS V14.01,2013-04-25 06:31:00,
2013-04-25 02:36:00,44.3,41.3,30.10,SSW,204,0.0,0.0,89,0.00,,---,0.00,VWS V14.01,2013-04-25 06:36:00,
2013-04-25 02:41:00,44.2,40.9,30.10,SSE,156,1.0,2.0,88,0.00,,---,0.00,VWS V14.01,2013-04-25 06:41:00,
2013-04-25 02:46:00,44.1,41.1,30.10,WNW,283,1.0,1.0,89,0.00,,---,0.00,VWS V14.01,2013-04-25 06:46:00,
2013-04-25 02:51:00,44.0,40.7,30.10,SW,228,0.0,0.0,88,0.00,,---,0.00,VWS V14.01,2013-04-25 06:51:00,
2013-04-25 02:56:00,43.9,40.6,30.10,SE,125,3.0,3.0,88,0.00,,---,0.00,VWS V14.01,2013-04-25 06:56:00,
2013-04-25 03:01:00,43.7,40.4,30.10,South,174,4.0,4.0,88,0.00,,---,0.00,VWS V14.01,2013-04-25 07:01:00,
2013-04-25 03:06:00,43.5,40.2,30.11,WSW,248,1.0,6.0,88,0.00,,---,0.00,VWS V14.01,2013-04-25 07:06:00,
2013-04-25 03:11:00,43.3,40.0,30.10,West,266,3.0,4.0,88,0.00,,---,0.00,VWS V14.01,2013-04-25 07:11:00,
2013-04-25 03:16:00,43.2,40.2,30.11,SE,139,1.0,1.0,89,0.00,,---,0.00,VWS V14.01,2013-04-25 07:16:00,
2013-04-25 03:21:00,43.1,39.8,30.11,SW,228,0.0,1.0,88,0.00,,---,0.00,VWS V14.01,2013-04-25 07:21:00,
2013-04-25 03:26:00,43.1,40.1,30.11,SW,225,1.0,2.0,89,0.00,,---,0.00,VWS V14.01,2013-04-25 07:26:00,
2013-04-25 03:31:00,42.9,39.3,30.11,ESE,113,0.0,0.0,87,0.00,,---,0.00,VWS V14.01,2013-04-25 07:31:00,
2013-04-25 03:36:00,42.7,39.4,30.11,SSE,159,0.0,0.0,88,0.00,,---,0.00,VWS V14.01,2013-04-25 07:36:00,
2013-04-25 03:41:00,42.6,39.0,30.11,WSW,250,1.0,5.0,87,0.00,,---,0.00,VWS V14.01,2013-04-25 07:41:00,
2013-04-25 03:46:00,42.5,39.2,30.11,SE,127,2.0,2.0,88,0.00,,---,0.00,VWS V14.01,2013-04-25 07:46:00,
2013-04-25 03:51:00,42.4,38.8,30.12,SSW,210,0.0,0.0,87,0.00,,---,0.00,VWS V14.01,2013-04-25 07:51:00,
2013-04-25 03:56:00,42.3,39.0,30.12,SSW,206,0.0,1.0,88,0.00,,---,0.00,VWS V14.01,2013-04-25 07:56:00,
2013-04-25 04:01:00,42.2,38.6,30.12,NNE,29,0.0,2.0,87,0.00,,---,0.00,VWS V14.01,2013-04-25 08:01:00,
2013-04-25 04:06:00,42.1,38.8,30.12,South,187,0.0,0.0,88,0.00,,---,0.00,VWS V14.01,2013-04-25 08:06:00,
2013-04-25 04:11:00,42.0,38.7,30.12,NNE,26,0.0,0.0,88,0.00,,---,0.00,VWS V14.01,2013-04-25 08:11:00,
2013-04-25 04:16:00,41.9,38.3,30.12,SE,140,2.0,3.0,87,0.00,,---,0.00,VWS V14.01,2013-04-25 08:16:00,
2013-04-25 04:21:00,41.8,38.5,30.12,SW,231,3.0,3.0,88,0.00,,---,0.00,VWS V14.01,2013-04-25 08:21:00,
2013-04-25 04:26:00,41.7,38.1,30.12,West,276,0.0,1.0,87,0.00,,---,0.00,VWS V14.01,2013-04-25 08:26:00,
2013-04-25 04:31:00,41.6,38.0,30.12,SW,231,1.0,1.0,87,0.00,,---,0.00,VWS V14.01,2013-04-25 08:31:00,
2013-04-25 04:36:00,41.6,38.3,30.12,West,274,0.0,0.0,88,0.00,,---,0.00,VWS V14.01,2013-04-25 08:36:00,
2013-04-25 04:41:00,41.5,38.2,30.12,East,100,1.0,1.0,88,0.00,,---,0.00,VWS V14.01,2013-04-25 08:41:00,
2013-04-25 04:45:00,41.5,37.9,30.12,North,351,0.0,0.0,87,0.00,,---,0.00,VWS V14.01,2013-04-25 08:45:00,
2013-04-25 04:50:00,41.5,38.2,30.12,SE,137,0.0,0.0,88,0.00,,---,0.00,VWS V14.01,2013-04-25 08:50:00,
2013-04-25 04:55:00,41.5,37.9,30.12,SSE,163,1.0,1.0,87,0.00,,---,0.00,VWS V14.01,2013-04-25 08:55:00,
2013-04-25 05:00:00,41.4,37.8,30.12,SSW,203,2.0,2.0,87,0.00,,---,0.00,VWS V14.01,2013-04-25 09:00:00,
2013-04-25 05:05:00,41.3,37.7,30.12,SSE,155,0.0,0.0,87,0.00,,---,0.00,VWS V14.01,2013-04-25 09:05:00,
2013-04-25 05:10:00,41.3,37.7,30.13,SE,146,0.0,0.0,87,0.00,,---,0.00,VWS V14.01,2013-04-25 09:10:00,
2013-04-25 05:15:00,41.2,37.6,30.13,SSW,197,0.0,0.0,87,0.00,,---,0.00,VWS V14.01,2013-04-25 09:15:00,
2013-04-25 05:20:00,41.2,37.6,30.13,ENE,65,1.0,1.0,87,0.00,,---,0.00,VWS V14.01,2013-04-25 09:20:00,
2013-04-25 05:25:00,41.1,37.2,30.14,SSW,207,1.0,1.0,86,0.00,,---,0.00,VWS V14.01,2013-04-25 09:25:00,
2013-04-25 05:30:00,41.1,37.8,30.14,SSW,210,0.0,0.0,88,0.00,,---,0.00,VWS V14.01,2013-04-25 09:30:00,
2013-04-25 05:35:00,41.1,38.1,30.14,SSW,195,0.0,0.0,89,0.00,,---,0.00,VWS V14.01,2013-04-25 09:35:00,
2013-04-25 05:40:00,41.1,37.8,30.14,South,170,1.0,1.0,88,0.00,,---,0.00,VWS V14.01,2013-04-25 09:40:00,
2013-04-25 05:45:00,41.0,37.4,30.15,SSE,159,2.0,2.0,87,0.00,,---,0.00,VWS V14.01,2013-04-25 09:45:00,
2013-04-25 05:50:00,40.9,37.6,30.15,NNE,29,0.0,0.0,88,0.00,,---,0.00,VWS V14.01,2013-04-25 09:50:00,
2013-04-25 05:55:00,40.7,37.1,30.15,ESE,121,2.0,2.0,87,0.00,,---,0.00,VWS V14.01,2013-04-25 09:55:00,
2013-04-25 06:00:00,40.6,37.0,30.14,WNW,291,3.0,3.0,87,0.00,,---,0.00,VWS V14.01,2013-04-25 10:00:00,
2013-04-25 06:05:00,40.5,36.9,30.15,WSW,248,2.0,2.0,87,0.00,,---,0.00,VWS V14.01,2013-04-25 10:05:00,
2013-04-25 06:10:00,40.4,36.8,30.15,SSW,205,0.0,1.0,87,0.00,,---,0.00,VWS V14.01,2013-04-25 10:10:00,
2013-04-25 06:15:00,40.3,36.8,30.15,WNW,283,1.0,1.0,87,0.00,,---,0.00,VWS V14.01,2013-04-25 10:15:00,
2013-04-25 06:20:00,40.3,36.8,30.15,SW,221,3.0,3.0,87,0.00,,---,0.00,VWS V14.01,2013-04-25 10:20:00,
2013-04-25 06:25:00,40.2,36.9,30.16,SE,144,0.0,1.0,88,0.00,,---,0.00,VWS V14.01,2013-04-25 10:25:00,
2013-04-25 06:30:00,40.0,36.5,30.16,South,169,3.0,3.0,87,0.00,,---,0.00,VWS V14.01,2013-04-25 10:30:00,
2013-04-25 06:35:00,39.9,36.6,30.15,South,191,1.0,2.0,88,0.00,,---,0.00,VWS V14.01,2013-04-25 10:35:00,
2013-04-25 06:40:00,39.9,36.6,30.15,South,188,0.0,0.0,88,0.00,,---,0.00,VWS V14.01,2013-04-25 10:40:00,
2013-04-25 06:45:00,40.0,37.0,30.16,South,188,0.0,0.0,89,0.00,,---,0.00,VWS V14.01,2013-04-25 10:45:00,
2013-04-25 06:50:00,40.0,37.0,30.16,South,187,0.0,0.0,89,0.00,,---,0.00,VWS V14.01,2013-04-25 10:50:00,
2013-04-25 06:55:00,39.9,36.9,30.16,West,273,0.0,1.0,89,0.00,,---,0.00,VWS V14.01,2013-04-25 10:55:00,
2013-04-25 07:00:00,39.8,36.5,30.16,SW,227,0.0,0.0,88,0.00,,---,0.00,VWS V14.01,2013-04-25 11:00:00,
2013-04-25 07:05:00,39.8,36.5,30.16,SSE,158,0.0,2.0,88,0.00,,---,0.00,VWS V14.01,2013-04-25 11:05:00,
2013-04-25 07:10:00,39.7,36.4,30.16,West,270,0.0,0.0,88,0.00,,---,0.00,VWS V14.01,2013-04-25 11:10:00,
2013-04-25 07:15:00,39.6,36.3,30.17,WSW,255,1.0,1.0,88,0.00,,---,0.00,VWS V14.01,2013-04-25 11:15:00,
2013-04-25 07:20:00,39.5,36.5,30.17,NE,44,0.0,1.0,89,0.00,,---,0.00,VWS V14.01,2013-04-25 11:20:00,
2013-04-25 07:25:00,39.4,36.2,30.17,West,262,0.0,1.0,88,0.00,,---,0.00,VWS V14.01,2013-04-25 11:25:00,
2013-04-25 07:30:00,39.3,36.0,30.17,West,281,1.0,2.0,88,0.00,,---,0.00,VWS V14.01,2013-04-25 11:30:00,
2013-04-25 07:35:00,39.2,36.2,30.17,South,172,1.0,3.0,89,0.00,,---,0.00,VWS V14.01,2013-04-25 11:35:00,
2013-04-25 07:40:00,39.1,36.1,30.18,ENE,58,0.0,3.0,89,0.00,,---,0.00,VWS V14.01,2013-04-25 11:40:00,
2013-04-25 07:45:00,39.0,36.0,30.18,NE,51,0.0,0.0,89,0.00,,---,0.00,VWS V14.01,2013-04-25 11:45:00,
2013-04-25 07:50:00,39.0,36.0,30.18,NE,51,0.0,1.0,89,0.00,,---,0.00,VWS V14.01,2013-04-25 11:50:00,
2013-04-25 07:55:00,38.9,35.9,30.18,ESE,122,1.0,1.0,89,0.00,,---,0.00,VWS V14.01,2013-04-25 11:55:00,
2013-04-25 08:00:00,38.8,35.8,30.18,WSW,256,0.0,0.0,89,0.00,,---,0.00,VWS V14.01,2013-04-25 12:00:00,
2013-04-25 08:05:00,38.8,35.8,30.18,ENE,72,1.0,1.0,89,0.00,,---,0.00,VWS V14.01,2013-04-25 12:05:00,
2013-04-25 08:10:00,38.8,35.8,30.18,NE,50,0.0,0.0,89,0.00,,---,0.00,VWS V14.01,2013-04-25 12:10:00,
2013-04-25 08:15:00,38.8,36.1,30.19,NE,50,0.0,0.0,90,0.00,,---,0.00,VWS V14.01,2013-04-25 12:15:00,
2013-04-25 08:20:00,38.9,36.2,30.19,NE,49,0.0,0.0,90,0.00,,---,0.00,VWS V14.01,2013-04-25 12:20:00,
2013-04-25 08:25:00,39.0,36.3,30.18,NE,51,0.0,0.0,90,0.00,,---,0.00,VWS V14.01,2013-04-25 12:25:00,
2013-04-25 08:30:00,39.1,36.4,30.18,NE,51,0.0,0.0,90,0.00,,---,0.00,VWS V14.01,2013-04-25 12:30:00,
2013-04-25 08:35:00,39.1,36.1,30.19,NE,51,0.0,0.0,89,0.00,,---,0.00,VWS V14.01,2013-04-25 12:35:00,
2013-04-25 08:40:00,39.2,36.5,30.19,NE,51,0.0,0.0,90,0.00,,---,0.00,VWS V14.01,2013-04-25 12:40:00,
2013-04-25 08:45:00,39.3,36.6,30.19,NE,51,0.0,0.0,90,0.00,,---,0.00,VWS V14.01,2013-04-25 12:45:00,
2013-04-25 08:50:00,39.4,36.4,30.19,NE,51,0.0,0.0,89,0.00,,---,0.00,VWS V14.01,2013-04-25 12:50:00,
2013-04-25 08:55:00,39.7,37.0,30.19,NE,51,0.0,0.0,90,0.00,,---,0.00,VWS V14.01,2013-04-25 12:55:00,
2013-04-25 09:00:00,40.0,37.0,30.19,ESE,105,0.0,0.0,89,0.00,,---,0.00,VWS V14.01,2013-04-25 13:00:00,
2013-04-25 09:05:00,40.3,37.0,30.20,ESE,105,0.0,0.0,88,0.00,,---,0.00,VWS V14.01,2013-04-25 13:05:00,
2013-04-25 09:10:00,40.6,37.3,30.20,WNW,287,0.0,1.0,88,0.00,,---,0.00,VWS V14.01,2013-04-25 13:10:00,
2013-04-25 09:15:00,40.9,37.9,30.20,North,352,0.0,0.0,89,0.00,,---,0.00,VWS V14.01,2013-04-25 13:15:00,
2013-04-25 09:20:00,41.1,37.5,30.20,SE,135,0.0,0.0,87,0.00,,---,0.00,VWS V14.01,2013-04-25 13:20:00,
2013-04-25 09:25:00,41.3,37.4,30.20,SE,134,0.0,1.0,86,0.00,,---,0.00,VWS V14.01,2013-04-25 13:25:00,
2013-04-25 09:30:00,41.6,38.0,30.20,NW,316,2.0,2.0,87,0.00,,---,0.00,VWS V14.01,2013-04-25 13:30:00,
2013-04-25 09:35:00,41.9,37.7,30.20,NW,308,2.0,2.0,85,0.00,,---,0.00,VWS V14.01,2013-04-25 13:35:00,
2013-04-25 09:40:00,42.2,38.0,30.20,South,187,0.0,2.0,85,0.00,,---,0.00,VWS V14.01,2013-04-25 13:40:00,
2013-04-25 09:45:00,42.4,37.9,30.20,SW,221,1.0,2.0,84,0.00,,---,0.00,VWS V14.01,2013-04-25 13:45:00,
2013-04-25 09:50:00,42.6,38.1,30.20,SSW,204,1.0,2.0,84,0.00,,---,0.00,VWS V14.01,2013-04-25 13:50:00,
2013-04-25 09:55:00,42.8,38.0,30.20,West,281,0.0,0.0,83,0.00,,---,0.00,VWS V14.01,2013-04-25 13:55:00,
2013-04-25 10:00:00,43.2,38.4,30.21,SW,228,0.0,0.0,83,0.00,,---,0.00,VWS V14.01,2013-04-25 14:00:00,
2013-04-25 10:05:00,43.5,38.1,30.21,SW,234,0.0,0.0,81,0.00,,---,0.00,VWS V14.01,2013-04-25 14:05:00,
2013-04-25 10:10:00,43.8,38.4,30.21,SW,235,0.0,0.0,81,0.00,,---,0.00,VWS V14.01,2013-04-25 14:10:00,
2013-04-25 10:15:00,44.1,38.7,30.21,South,173,1.0,2.0,81,0.00,,---,0.00,VWS V14.01,2013-04-25 14:15:00,
2013-04-25 10:20:00,44.4,38.6,30.21,ESE,110,0.0,1.0,80,0.00,,---,0.00,VWS V14.01,2013-04-25 14:20:00,
2013-04-25 10:25:00,44.8,39.0,30.21,West,260,2.0,4.0,80,0.00,,---,0.00,VWS V14.01,2013-04-25 14:25:00,
2013-04-25 10:30:00,45.2,38.8,30.21,NW,305,1.0,1.0,78,0.00,,---,0.00,VWS V14.01,2013-04-25 14:30:00,
2013-04-25 10:35:00,45.7,39.6,30.21,NW,314,2.0,4.0,79,0.00,,---,0.00,VWS V14.01,2013-04-25 14:35:00,
2013-04-25 10:40:00,46.1,39.6,30.22,West,276,0.0,1.0,78,0.00,,---,0.00,VWS V14.01,2013-04-25 14:40:00,
2013-04-25 10:45:00,46.4,39.3,30.22,South,188,1.0,3.0,76,0.00,,---,0.00,VWS V14.01,2013-04-25 14:45:00,
2013-04-25 10:50:00,46.7,39.2,30.23,ESE,118,1.0,2.0,75,0.00,,---,0.00,VWS V14.01,2013-04-25 14:50:00,
2013-04-25 10:55:00,46.9,39.1,30.23,WSW,257,0.0,2.0,74,0.00,,---,0.00,VWS V14.01,2013-04-25 14:55:00,
2013-04-25 11:00:00,47.2,39.3,30.23,SW,221,2.0,4.0,74,0.00,,---,0.00,VWS V14.01,2013-04-25 15:00:00,
2013-04-25 11:05:00,47.9,40.4,30.23,NW,304,1.0,1.0,75,0.00,,---,0.00,VWS V14.01,2013-04-25 15:05:00,
2013-04-25 11:10:00,48.8,39.5,30.23,SW,226,1.0,5.0,70,0.00,,---,0.00,VWS V14.01,2013-04-25 15:10:00,
2013-04-25 11:15:00,49.3,39.2,30.23,SSW,211,4.0,7.0,68,0.00,,---,0.00,VWS V14.01,2013-04-25 15:15:00,
2013-04-25 11:20:00,49.2,38.3,30.23,WNW,293,2.0,4.0,66,0.00,,---,0.00,VWS V14.01,2013-04-25 15:20:00,
2013-04-25 11:25:00,49.6,39.9,30.24,SSW,211,0.0,5.0,69,0.00,,---,0.00,VWS V14.01,2013-04-25 15:25:00,
2013-04-25 11:30:00,50.1,38.8,30.24,SSE,162,2.0,3.0,65,0.00,,---,0.00,VWS V14.01,2013-04-25 15:30:00,
2013-04-25 11:35:00,50.1,38.4,30.24,South,179,4.0,6.0,64,0.00,,---,0.00,VWS V14.01,2013-04-25 15:35:00,
2013-04-25 11:40:00,50.2,37.7,30.24,NE,47,5.0,6.0,62,0.00,,---,0.00,VWS V14.01,2013-04-25 15:40:00,
2013-04-25 11:45:00,50.3,38.2,30.24,South,176,5.0,5.0,63,0.00,,---,0.00,VWS V14.01,2013-04-25 15:45:00,
2013-04-25 11:50:00,51.1,38.5,30.24,South,176,6.0,7.0,62,0.00,,---,0.00,VWS V14.01,2013-04-25 15:50:00,
2013-04-25 11:55:00,51.5,38.1,30.24,South,181,5.0,6.0,60,0.00,,---,0.00,VWS V14.01,2013-04-25 15:55:00,
2013-04-25 12:00:00,51.6,37.3,30.24,ESE,110,3.0,3.0,58,0.00,,---,0.00,VWS V14.01,2013-04-25 16:00:00,
2013-04-25 12:05:00,52.0,38.1,30.24,WSW,243,3.0,3.0,59,0.00,,---,0.00,VWS V14.01,2013-04-25 16:05:00,
2013-04-25 12:10:00,52.5,39.0,30.24,WNW,283,0.0,3.0,60,0.00,,---,0.00,VWS V14.01,2013-04-25 16:10:00,
2013-04-25 12:15:00,52.8,39.7,30.24,SSW,205,5.0,7.0,61,0.00,,---,0.00,VWS V14.01,2013-04-25 16:15:00,
2013-04-25 12:20:00,53.0,37.3,30.25,SSE,166,4.0,11.0,55,0.00,,---,0.00,VWS V14.01,2013-04-25 16:20:00,
2013-04-25 12:25:00,53.4,38.6,30.24,South,171,5.0,8.0,57,0.00,,---,0.00,VWS V14.01,2013-04-25 16:25:00,
2013-04-25 12:30:00,54.1,38.3,30.24,ESE,113,1.0,4.0,55,0.00,,---,0.00,VWS V14.01,2013-04-25 16:30:00,
2013-04-25 12:35:00,54.7,38.4,30.24,SSE,149,0.0,3.0,54,0.00,,---,0.00,VWS V14.01,2013-04-25 16:35:00,
2013-04-25 12:40:00,55.3,39.0,30.24,NW,318,1.0,5.0,54,0.00,,---,0.00,VWS V14.01,2013-04-25 16:40:00,
2013-04-25 12:45:00,55.7,38.4,30.24,South,172,2.0,5.0,52,0.00,,---,0.00,VWS V14.01,2013-04-25 16:45:00,
2013-04-25 12:50:00,55.6,35.7,30.25,SE,146,3.0,4.0,47,0.00,,---,0.00,VWS V14.01,2013-04-25 16:50:00,
2013-04-25 12:55:00,55.8,36.9,30.24,ESE,113,1.0,4.0,49,0.00,,---,0.00,VWS V14.01,2013-04-25 16:55:00,
2013-04-25 13:00:00,56.2,37.8,30.24,WSW,245,3.0,6.0,50,0.00,,---,0.00,VWS V14.01,2013-04-25 17:00:00,
2013-04-25 13:05:00,56.1,35.1,30.24,SSE,151,3.0,3.0,45,0.00,,---,0.00,VWS V14.01,2013-04-25 17:05:00,
2013-04-25 13:10:00,56.5,34.9,30.24,SE,124,1.0,5.0,44,0.00,,---,0.00,VWS V14.01,2013-04-25 17:10:00,
2013-04-25 13:15:00,56.7,34.5,30.25,SW,225,5.0,6.0,43,0.00,,---,0.00,VWS V14.01,2013-04-25 17:15:00,
2013-04-25 13:20:00,57.1,30.4,30.24,SE,142,2.0,5.0,36,0.00,,---,0.00,VWS V14.01,2013-04-25 17:20:00,
2013-04-25 13:25:00,57.1,30.4,30.25,ENE,74,6.0,7.0,36,0.00,,---,0.00,VWS V14.01,2013-04-25 17:25:00,
2013-04-25 13:30:00,57.3,31.9,30.25,NE,36,2.0,2.0,38,0.00,,---,0.00,VWS V14.01,2013-04-25 17:30:00,
2013-04-25 13:35:00,58.0,33.8,30.25,West,281,3.0,5.0,40,0.00,,---,0.00,VWS V14.01,2013-04-25 17:35:00,
2013-04-25 13:40:00,58.5,29.5,30.24,NE,36,0.0,3.0,33,0.00,,---,0.00,VWS V14.01,2013-04-25 17:40:00,
2013-04-25 13:45:00,59.2,30.1,30.24,ENE,75,2.0,4.0,33,0.00,,---,0.00,VWS V14.01,2013-04-25 17:45:00,
2013-04-25 13:50:00,59.7,29.0,30.24,West,267,2.0,7.0,31,0.00,,---,0.00,VWS V14.01,2013-04-25 17:50:00,
2013-04-25 13:55:00,60.3,30.3,30.24,NNE,13,2.0,4.0,32,0.00,,---,0.00,VWS V14.01,2013-04-25 17:55:00,
2013-04-25 14:00:00,60.9,28.5,30.24,SSW,204,4.0,4.0,29,0.00,,---,0.00,VWS V14.01,2013-04-25 18:00:00,
2013-04-25 14:05:00,61.0,29.4,30.24,WNW,301,1.0,6.0,30,0.00,,---,0.00,VWS V14.01,2013-04-25 18:05:00,
2013-04-25 14:10:00,61.7,28.3,30.24,South,176,1.0,2.0,28,0.00,,---,0.00,VWS V14.01,2013-04-25 18:10:00,
2013-04-25 14:15:00,62.3,30.5,30.24,SSE,164,2.0,2.0,30,0.00,,---,0.00,VWS V14.01,2013-04-25 18:15:00,
2013-04-25 14:20:00,62.9,26.6,30.24,South,169,1.0,4.0,25,0.00,,---,0.00,VWS V14.01,2013-04-25 18:20:00,
2013-04-25 14:25:00,62.6,18.5,30.24,South,186,2.0,4.0,18,0.00,,---,0.00,VWS V14.01,2013-04-25 18:25:00,
2013-04-25 14:30:00,62.7,19.9,30.24,SW,214,2.0,4.0,19,0.00,,---,0.00,VWS V14.01,2013-04-25 18:30:00,
2013-04-25 14:35:00,63.4,23.9,30.25,WSW,245,2.0,5.0,22,0.00,,---,0.00,VWS V14.01,2013-04-25 18:35:00,
2013-04-25 14:40:00,62.9,16.0,30.24,SSE,167,3.0,3.0,16,0.00,,---,0.00,VWS V14.01,2013-04-25 18:40:00,
2013-04-25 14:45:00,62.8,18.7,30.24,SSE,160,2.0,3.0,18,0.00,,---,0.00,VWS V14.01,2013-04-25 18:45:00,
2013-04-25 14:50:00,63.0,18.9,30.24,SSE,152,1.0,3.0,18,0.00,,---,0.00,VWS V14.01,2013-04-25 18:50:00,
2013-04-25 14:55:00,63.5,21.7,30.24,SSW,193,2.0,2.0,20,0.00,,---,0.00,VWS V14.01,2013-04-25 18:55:00,
2013-04-25 15:00:00,63.7,15.2,30.24,SW,219,2.0,6.0,15,0.00,,---,0.00,VWS V14.01,2013-04-25 19:00:00,
2013-04-25 15:05:00,63.4,15.0,30.24,SE,131,2.0,3.0,15,0.00,,---,0.00,VWS V14.01,2013-04-25 19:05:00,
2013-04-25 15:10:00,64.1,19.8,30.24,WNW,302,2.0,3.0,18,0.00,,---,0.00,VWS V14.01,2013-04-25 19:10:00,
2013-04-25 15:15:00,63.2,19.0,30.24,ESE,120,3.0,5.0,18,0.00,,---,0.00,VWS V14.01,2013-04-25 19:15:00,
2013-04-25 15:20:00,63.0,20.1,30.24,WSW,257,1.0,4.0,19,0.00,,---,0.00,VWS V14.01,2013-04-25 19:20:00,
2013-04-25 15:25:00,63.3,21.6,30.24,SW,231,5.0,5.0,20,0.00,,---,0.00,VWS V14.01,2013-04-25 19:25:00,
2013-04-25 15:30:00,63.9,23.2,30.24,NE,36,5.0,5.0,21,0.00,,---,0.00,VWS V14.01,2013-04-25 19:30:00,
2013-04-25 15:35:00,63.8,22.0,30.23,ESE,121,7.0,8.0,20,0.00,,---,0.00,VWS V14.01,2013-04-25 19:35:00,
2013-04-25 15:40:00,63.4,23.9,30.23,WNW,287,1.0,5.0,22,0.00,,---,0.00,VWS V14.01,2013-04-25 19:40:00,
2013-04-25 15:45:00,63.4,22.8,30.23,SSW,201,2.0,2.0,21,0.00,,---,0.00,VWS V14.01,2013-04-25 19:45:00,
2013-04-25 15:50:00,63.7,20.7,30.23,ESE,108,1.0,3.0,19,0.00,,---,0.00,VWS V14.01,2013-04-25 19:50:00,
2013-04-25 15:55:00,63.7,19.4,30.22,South,169,2.0,5.0,18,0.00,,---,0.00,VWS V14.01,2013-04-25 19:55:00,
2013-04-25 16:00:00,63.7,20.7,30.22,South,172,2.0,8.0,19,0.00,,---,0.00,VWS V14.01,2013-04-25 20:00:00,
2013-04-25 16:05:00,63.8,23.1,30.22,South,184,3.0,4.0,21,0.00,,---,0.00,VWS V14.01,2013-04-25 20:05:00,
2013-04-25 16:10:00,64.3,19.9,30.22,SSE,156,3.0,9.0,18,0.00,,---,0.00,VWS V14.01,2013-04-25 20:10:00,
2013-04-25 16:15:00,64.2,22.3,30.22,ENE,58,2.0,3.0,20,0.00,,---,0.00,VWS V14.01,2013-04-25 20:15:00,
2013-04-25 16:20:00,64.7,21.5,30.23,SW,219,5.0,11.0,19,0.00,,---,0.00,VWS V14.01,2013-04-25 20:20:00,
2013-04-25 16:25:00,64.0,20.9,30.22,SSW,197,2.0,4.0,19,0.00,,---,0.00,VWS V14.01,2013-04-25 20:25:00,
2013-04-25 16:30:00,63.8,19.5,30.22,SE,131,1.0,2.0,18,0.00,,---,0.00,VWS V14.01,2013-04-25 20:30:00,
2013-04-25 16:35:00,63.3,17.8,30.22,NNE,30,2.0,8.0,17,0.00,,---,0.00,VWS V14.01,2013-04-25 20:35:00,
2013-04-25 16:40:00,63.1,17.6,30.22,West,267,3.0,5.0,17,0.00,,---,0.00,VWS V14.01,2013-04-25 20:40:00,
2013-04-25 16:45:00,63.3,25.9,30.22,WNW,295,4.0,4.0,24,0.00,,---,0.00,VWS V14.01,2013-04-25 20:45:00,
2013-04-25 16:50:00,63.7,18.1,30.22,NNE,15,1.0,6.0,17,0.00,,---,0.00,VWS V14.01,2013-04-25 20:50:00,
2013-04-25 16:55:00,63.6,18.0,30.22,WSW,256,4.0,4.0,17,0.00,,---,0.00,VWS V14.01,2013-04-25 20:55:00,
2013-04-25 17:00:00,63.7,19.4,30.22,East,82,1.0,3.0,18,0.00,,---,0.00,VWS V14.01,2013-04-25 21:00:00,
2013-04-25 17:05:00,63.9,19.6,30.22,ESE,110,5.0,6.0,18,0.00,,---,0.00,VWS V14.01,2013-04-25 21:05:00,
2013-04-25 17:10:00,64.0,18.3,30.23,South,188,1.0,4.0,17,0.00,,---,0.00,VWS V14.01,2013-04-25 21:10:00,
2013-04-25 17:15:00,63.2,19.0,30.22,South,186,5.0,5.0,18,0.00,,---,0.00,VWS V14.01,2013-04-25 21:15:00,
2013-04-25 17:20:00,63.3,21.6,30.22,SW,229,3.0,3.0,20,0.00,,---,0.00,VWS V14.01,2013-04-25 21:20:00,
2013-04-25 17:25:00,63.0,16.1,30.22,WSW,248,1.0,3.0,16,0.00,,---,0.00,VWS V14.01,2013-04-25 21:25:00,
2013-04-25 17:30:00,63.2,14.8,30.23,SE,143,2.0,8.0,15,0.00,,---,0.00,VWS V14.01,2013-04-25 21:30:00,
2013-04-25 17:35:00,63.1,14.7,30.22,South,184,2.0,6.0,15,0.00,,---,0.00,VWS V14.01,2013-04-25 21:35:00,
2013-04-25 17:40:00,62.1,18.1,30.23,WSW,238,0.0,3.0,18,0.00,,---,0.00,VWS V14.01,2013-04-25 21:40:00,
2013-04-25 17:45:00,62.1,18.1,30.23,South,173,2.0,5.0,18,0.00,,---,0.00,VWS V14.01,2013-04-25 21:45:00,
2013-04-25 17:50:00,62.0,16.7,30.23,South,172,4.0,5.0,17,0.00,,---,0.00,VWS V14.01,2013-04-25 21:50:00,
2013-04-25 17:55:00,61.6,21.3,30.23,SSW,203,1.0,3.0,21,0.00,,---,0.00,VWS V14.01,2013-04-25 21:55:00,
2013-04-25 18:00:00,61.6,17.7,30.24,SE,143,2.0,5.0,18,0.00,,---,0.00,VWS V14.01,2013-04-25 22:00:00,
2013-04-25 18:05:00,60.9,17.1,30.24,ESE,114,0.0,3.0,18,0.00,,---,0.00,VWS V14.01,2013-04-25 22:05:00,
2013-04-25 18:10:00,60.6,19.3,30.24,ESE,119,1.0,3.0,20,0.00,,---,0.00,VWS V14.01,2013-04-25 22:10:00,
2013-04-25 18:15:00,60.7,18.2,30.24,NNE,29,3.0,4.0,19,0.00,,---,0.00,VWS V14.01,2013-04-25 22:15:00,
2013-04-25 18:20:00,60.9,18.4,30.24,South,173,1.0,8.0,19,0.00,,---,0.00,VWS V14.01,2013-04-25 22:20:00,
2013-04-25 18:25:00,60.9,20.7,30.24,SSE,148,2.0,3.0,21,0.00,,---,0.00,VWS V14.01,2013-04-25 22:25:00,
2013-04-25 18:30:00,60.5,22.5,30.24,SE,136,1.0,2.0,23,0.00,,---,0.00,VWS V14.01,2013-04-25 22:30:00,
2013-04-25 18:35:00,60.5,20.4,30.24,SSE,156,1.0,3.0,21,0.00,,---,0.00,VWS V14.01,2013-04-25 22:35:00,
2013-04-25 18:40:00,60.2,23.3,30.24,South,184,1.0,4.0,24,0.00,,---,0.00,VWS V14.01,2013-04-25 22:40:00,
2013-04-25 18:45:00,59.9,23.0,30.24,SSW,200,2.0,4.0,24,0.00,,---,0.00,VWS V14.01,2013-04-25 22:45:00,
2013-04-25 18:50:00,59.9,24.0,30.24,West,266,3.0,3.0,25,0.00,,---,0.00,VWS V14.01,2013-04-25 22:50:00,
2013-04-25 18:55:00,59.0,23.2,30.25,WSW,238,2.0,4.0,25,0.00,,---,0.00,VWS V14.01,2013-04-25 22:55:00,
2013-04-25 19:00:00,58.9,24.1,30.25,WSW,252,1.0,4.0,26,0.00,,---,0.00,VWS V14.01,2013-04-25 23:00:00,
2013-04-25 19:05:00,58.6,26.5,30.25,WNW,284,2.0,2.0,29,0.00,,---,0.00,VWS V14.01,2013-04-25 23:05:00,
2013-04-25 19:10:00,57.8,25.8,30.25,SW,219,2.0,2.0,29,0.00,,---,0.00,VWS V14.01,2013-04-25 23:10:00,
2013-04-25 19:15:00,57.1,27.5,30.25,SSE,159,0.0,1.0,32,0.00,,---,0.00,VWS V14.01,2013-04-25 23:15:00,
2013-04-25 19:20:00,56.7,27.2,30.25,WNW,290,0.0,2.0,32,0.00,,---,0.00,VWS V14.01,2013-04-25 23:20:00,
2013-04-25 19:25:00,56.1,25.1,30.25,SW,229,0.0,0.0,30,0.00,,---,0.00,VWS V14.01,2013-04-25 23:25:00,
2013-04-25 19:30:00,55.9,26.5,30.26,SSW,200,0.0,0.0,32,0.00,,---,0.00,VWS V14.01,2013-04-25 23:30:00,
2013-04-25 19:35:00,55.6,25.5,30.26,East,87,1.0,1.0,31,0.00,,---,0.00,VWS V14.01,2013-04-25 23:35:00,
2013-04-25 19:40:00,55.3,24.4,30.26,WNW,293,0.0,2.0,30,0.00,,---,0.00,VWS V14.01,2013-04-25 23:40:00,
2013-04-25 19:45:00,55.0,25.7,30.26,ESE,104,1.0,2.0,32,0.00,,---,0.00,VWS V14.01,2013-04-25 23:45:00,
2013-04-25 19:50:00,54.7,26.2,30.26,SE,144,2.0,2.0,33,0.00,,---,0.00,VWS V14.01,2013-04-25 23:50:00,
2013-04-25 19:55:00,54.5,26.7,30.26,ESE,120,1.0,1.0,34,0.00,,---,0.00,VWS V14.01,2013-04-25 23:55:00,
2013-04-25 20:00:00,54.1,27.1,30.26,South,176,0.0,1.0,35,0.00,,---,0.00,VWS V14.01,2013-04-26 00:00:00,
2013-04-25 20:05:00,53.7,27.4,30.26,SSE,147,1.0,1.0,36,0.00,,---,0.00,VWS V14.01,2013-04-26 00:05:00,
2013-04-25 20:10:00,53.4,25.8,30.27,SW,215,0.0,1.0,34,0.00,,---,0.00,VWS V14.01,2013-04-26 00:10:00,
2013-04-25 20:15:00,53.3,26.4,30.26,East,89,2.0,2.0,35,0.00,,---,0.00,VWS V14.01,2013-04-26 00:15:00,
2013-04-25 20:20:00,53.0,26.8,30.27,East,88,2.0,2.0,36,0.00,,---,0.00,VWS V14.01,2013-04-26 00:20:00,
2013-04-25 20:25:00,52.9,27.4,30.27,ESE,116,1.0,1.0,37,0.00,,---,0.00,VWS V14.01,2013-04-26 00:25:00,
2013-04-25 20:30:00,52.6,25.8,30.27,SE,139,1.0,1.0,35,0.00,,---,0.00,VWS V14.01,2013-04-26 00:30:00,
2013-04-25 20:35:00,52.4,25.6,30.27,SE,129,0.0,3.0,35,0.00,,---,0.00,VWS V14.01,2013-04-26 00:35:00,
2013-04-25 20:40:00,52.3,25.5,30.27,WSW,250,0.0,0.0,35,0.00,,---,0.00,VWS V14.01,2013-04-26 00:40:00,
2013-04-25 20:45:00,52.1,25.3,30.28,East,82,0.0,2.0,35,0.00,,---,0.00,VWS V14.01,2013-04-26 00:45:00,
2013-04-25 20:50:00,52.0,25.9,30.28,SE,132,2.0,2.0,36,0.00,,---,0.00,VWS V14.01,2013-04-26 00:50:00,
2013-04-25 20:55:00,51.6,25.5,30.28,SE,145,0.0,0.0,36,0.00,,---,0.00,VWS V14.01,2013-04-26 00:55:00,
2013-04-25 21:00:00,51.3,28.4,30.28,SE,144,0.0,0.0,41,0.00,,---,0.00,VWS V14.01,2013-04-26 01:00:00,
2013-04-25 21:05:00,50.6,29.5,30.28,SW,220,0.0,0.0,44,0.00,,---,0.00,VWS V14.01,2013-04-26 01:05:00,
2013-04-25 21:10:00,49.8,28.8,30.29,SE,130,0.0,0.0,44,0.00,,---,0.00,VWS V14.01,2013-04-26 01:10:00,
2013-04-25 21:15:00,49.5,29.6,30.29,SE,129,0.0,0.0,46,0.00,,---,0.00,VWS V14.01,2013-04-26 01:15:00,
2013-04-25 21:20:00,49.1,30.8,30.29,ESE,118,0.0,0.0,49,0.00,,---,0.00,VWS V14.01,2013-04-26 01:20:00,
2013-04-25 21:25:00,48.7,30.4,30.29,ESE,117,0.0,1.0,49,0.00,,---,0.00,VWS V14.01,2013-04-26 01:25:00,
2013-04-25 21:30:00,48.6,29.8,30.29,NNE,33,0.0,0.0,48,0.00,,---,0.00,VWS V14.01,2013-04-26 01:30:00,
2013-04-25 21:35:00,48.5,30.7,30.30,NNE,32,0.0,0.0,50,0.00,,---,0.00,VWS V14.01,2013-04-26 01:35:00,
2013-04-25 21:40:00,48.3,31.0,30.30,SW,222,0.0,0.0,51,0.00,,---,0.00,VWS V14.01,2013-04-26 01:40:00,
2013-04-25 21:45:00,48.1,30.8,30.31,WNW,293,1.0,2.0,51,0.00,,---,0.00,VWS V14.01,2013-04-26 01:45:00,
2013-04-25 21:50:00,47.6,30.9,30.30,NW,321,0.0,0.0,52,0.00,,---,0.00,VWS V14.01,2013-04-26 01:50:00,
2013-04-25 21:55:00,47.5,30.3,30.31,NW,322,0.0,0.0,51,0.00,,---,0.00,VWS V14.01,2013-04-26 01:55:00,
2013-04-25 22:00:00,47.5,29.8,30.31,NW,322,0.0,0.0,50,0.00,,---,0.00,VWS V14.01,2013-04-26 02:00:00,
2013-04-25 22:05:00,47.3,31.0,30.31,NW,317,0.0,0.0,53,0.00,,---,0.00,VWS V14.01,2013-04-26 02:05:00,
2013-04-25 22:10:00,47.1,31.8,30.32,NW,319,0.0,0.0,55,0.00,,---,0.00,VWS V14.01,2013-04-26 02:10:00,
2013-04-25 22:15:00,47.0,30.8,30.32,NW,319,0.0,0.0,53,0.00,,---,0.00,VWS V14.01,2013-04-26 02:15:00,
2013-04-25 22:20:00,46.9,32.0,30.32,NW,319,0.0,0.0,56,0.00,,---,0.00,VWS V14.01,2013-04-26 02:20:00,
2013-04-25 22:25:00,46.8,31.5,30.32,NW,319,0.0,0.0,55,0.00,,---,0.00,VWS V14.01,2013-04-26 02:25:00,
2013-04-25 22:30:00,46.8,31.5,30.32,NE,36,0.0,0.0,55,0.00,,---,0.00,VWS V14.01,2013-04-26 02:30:00,
2013-04-25 22:35:00,46.7,31.4,30.32,NE,34,0.0,0.0,55,0.00,,---,0.00,VWS V14.01,2013-04-26 02:35:00,
2013-04-25 22:40:00,46.4,29.8,30.32,NE,34,0.0,0.0,52,0.00,,---,0.00,VWS V14.01,2013-04-26 02:40:00,
2013-04-25 22:45:00,46.3,29.6,30.32,NE,34,0.0,0.0,52,0.00,,---,0.00,VWS V14.01,2013-04-26 02:45:00,
2013-04-25 22:50:00,46.2,29.6,30.32,NE,34,0.0,1.0,52,0.00,,---,0.00,VWS V14.01,2013-04-26 02:50:00,
2013-04-25 22:55:00,46.1,31.7,30.33,NE,34,0.0,0.0,57,0.00,,---,0.00,VWS V14.01,2013-04-26 02:55:00,
2013-04-25 23:00:00,46.0,31.6,30.32,NE,34,0.0,0.0,57,0.00,,---,0.00,VWS V14.01,2013-04-26 03:00:00,
2013-04-25 23:05:00,45.8,31.0,30.33,NE,34,0.0,0.0,56,0.00,,---,0.00,VWS V14.01,2013-04-26 03:05:00,
2013-04-25 23:10:00,45.7,30.0,30.32,NE,34,0.0,0.0,54,0.00,,---,0.00,VWS V14.01,2013-04-26 03:10:00,
2013-04-25 23:15:00,45.6,31.7,30.33,NE,34,0.0,0.0,58,0.00,,---,0.00,VWS V14.01,2013-04-26 03:15:00,
2013-04-25 23:20:00,45.4,29.7,30.32,NE,34,0.0,0.0,54,0.00,,---,0.00,VWS V14.01,2013-04-26 03:20:00,
2013-04-25 23:25:00,45.3,28.7,30.33,NE,34,0.0,0.0,52,0.00,,---,0.00,VWS V14.01,2013-04-26 03:25:00,
2013-04-25 23:30:00,45.2,30.0,30.32,NE,34,0.0,0.0,55,0.00,,---,0.00,VWS V14.01,2013-04-26 03:30:00,
2013-04-25 23:35:00,45.3,30.1,30.33,NE,34,0.0,1.0,55,0.00,,---,0.00,VWS V14.01,2013-04-26 03:35:00,
2013-04-25 23:40:00,45.3,30.5,30.33,NE,34,0.0,0.0,56,0.00,,---,0.00,VWS V14.01,2013-04-26 03:40:00,
2013-04-25 23:45:00,45.2,31.3,30.33,NE,34,0.0,1.0,58,0.00,,---,0.00,VWS V14.01,2013-04-26 03:45:00,
2013-04-25 23:50:00,45.2,31.7,30.33,NE,34,0.0,1.0,59,0.00,,---,0.00,VWS V14.01,2013-04-26 03:50:00,
2013-04-25 23:55:00,45.1,30.4,30.33,NE,36,0.0,0.0,56,0.00,,---,0.00,VWS V14.01,2013-04-26 03:55:00,